sensor_id;sensor_type;location;lat;lon;timestamp;temperature;humidity
12504;DHT22;6316;48.118;-1.690;2022-09-09T00:04:28;17.40;99.90
12504;DHT22;6316;48.118;-1.690;2022-09-09T00:09:50;17.40;99.90
12504;DHT22;6316;48.118;-1.690;2022-09-09T00:12:32;17.30;99.90
12504;DHT22;6316;48.118;-1.690;2022-09-09T00:15:05;17.30;99.90
12504;DHT22;6316;48.118;-1.690;2022-09-09T00:17:53;17.30;99.90
12504;DHT22;6316;48.118;-1.690;2022-09-09T00:20:40;17.30;99.90
12504;DHT22;6316;48.118;-1.690;2022-09-09T00:23:18;17.30;99.90
12504;DHT22;6316;48.118;-1.690;2022-09-09T00:26:13;17.20;99.90
12504;DHT22;6316;48.118;-1.690;2022-09-09T00:28:48;17.20;99.90
12504;DHT22;6316;48.118;-1.690;2022-09-09T00:31:20;17.20;99.90
12504;DHT22;6316;48.118;-1.690;2022-09-09T00:33:49;17.20;99.90
12504;DHT22;6316;48.118;-1.690;2022-09-09T00:36:18;17.20;99.90
12504;DHT22;6316;48.118;-1.690;2022-09-09T00:38:49;17.20;99.90
12504;DHT22;6316;48.118;-1.690;2022-09-09T00:41:51;17.20;99.90
12504;DHT22;6316;48.118;-1.690;2022-09-09T00:44:32;17.20;99.90
12504;DHT22;6316;48.118;-1.690;2022-09-09T00:49:50;17.20;99.90
12504;DHT22;6316;48.118;-1.690;2022-09-09T00:58:08;17.10;99.90
12504;DHT22;6316;48.118;-1.690;2022-09-09T01:01:07;17.10;99.90
12504;DHT22;6316;48.118;-1.690;2022-09-09T01:03:36;17.00;99.90
12504;DHT22;6316;48.118;-1.690;2022-09-09T01:09:02;17.00;99.90
12504;DHT22;6316;48.118;-1.690;2022-09-09T01:16:59;17.00;99.90
12504;DHT22;6316;48.118;-1.690;2022-09-09T01:27:47;16.90;99.90
12504;DHT22;6316;48.118;-1.690;2022-09-09T01:30:16;16.90;99.90
12504;DHT22;6316;48.118;-1.690;2022-09-09T01:32:46;16.80;99.90
12504;DHT22;6316;48.118;-1.690;2022-09-09T01:38:17;16.80;99.90
12504;DHT22;6316;48.118;-1.690;2022-09-09T01:40:43;16.80;99.90
12504;DHT22;6316;48.118;-1.690;2022-09-09T01:43:09;16.80;99.90
12504;DHT22;6316;48.118;-1.690;2022-09-09T01:45:35;16.70;99.90
12504;DHT22;6316;48.118;-1.690;2022-09-09T01:48:01;16.70;99.90
12504;DHT22;6316;48.118;-1.690;2022-09-09T01:50:28;16.70;99.90
12504;DHT22;6316;48.118;-1.690;2022-09-09T01:52:57;16.70;99.90
12504;DHT22;6316;48.118;-1.690;2022-09-09T01:56:00;16.70;99.90
12504;DHT22;6316;48.118;-1.690;2022-09-09T01:58:54;16.70;99.90
12504;DHT22;6316;48.118;-1.690;2022-09-09T02:03:57;16.60;99.90
12504;DHT22;6316;48.118;-1.690;2022-09-09T02:06:36;16.60;99.90
12504;DHT22;6316;48.118;-1.690;2022-09-09T02:09:05;16.60;99.90
12504;DHT22;6316;48.118;-1.690;2022-09-09T02:11:32;16.60;99.90
12504;DHT22;6316;48.118;-1.690;2022-09-09T02:16:38;16.60;99.90
12504;DHT22;6316;48.118;-1.690;2022-09-09T02:19:13;16.70;99.90
12504;DHT22;6316;48.118;-1.690;2022-09-09T02:21:41;16.60;99.90
12504;DHT22;6316;48.118;-1.690;2022-09-09T02:24:09;16.70;99.90
12504;DHT22;6316;48.118;-1.690;2022-09-09T02:26:39;16.70;99.90
12504;DHT22;6316;48.118;-1.690;2022-09-09T02:29:09;16.70;99.90
12504;DHT22;6316;48.118;-1.690;2022-09-09T02:31:37;16.80;99.90
12504;DHT22;6316;48.118;-1.690;2022-09-09T02:34:03;16.80;99.90
12504;DHT22;6316;48.118;-1.690;2022-09-09T02:36:32;16.90;99.90
12504;DHT22;6316;48.118;-1.690;2022-09-09T02:39:00;16.90;99.90
12504;DHT22;6316;48.118;-1.690;2022-09-09T02:41:33;16.90;99.90
12504;DHT22;6316;48.118;-1.690;2022-09-09T02:43:59;17.00;99.90
12504;DHT22;6316;48.118;-1.690;2022-09-09T02:47:01;17.00;99.90
12504;DHT22;6316;48.118;-1.690;2022-09-09T02:57:53;17.10;99.90
12504;DHT22;6316;48.118;-1.690;2022-09-09T03:00:27;17.20;99.90
12504;DHT22;6316;48.118;-1.690;2022-09-09T03:02:54;17.20;99.90
12504;DHT22;6316;48.118;-1.690;2022-09-09T03:05:20;17.20;99.90
12504;DHT22;6316;48.118;-1.690;2022-09-09T03:07:46;17.20;99.90
12504;DHT22;6316;48.118;-1.690;2022-09-09T03:10:12;17.20;99.90
12504;DHT22;6316;48.118;-1.690;2022-09-09T03:12:39;17.30;99.90
12504;DHT22;6316;48.118;-1.690;2022-09-09T03:15:05;17.30;99.90
12504;DHT22;6316;48.118;-1.690;2022-09-09T03:17:31;17.30;99.90
12504;DHT22;6316;48.118;-1.690;2022-09-09T03:19:57;17.30;99.90
12504;DHT22;6316;48.118;-1.690;2022-09-09T03:22:24;17.30;99.90
12504;DHT22;6316;48.118;-1.690;2022-09-09T03:24:51;17.40;99.90
12504;DHT22;6316;48.118;-1.690;2022-09-09T03:27:17;17.40;99.90
12504;DHT22;6316;48.118;-1.690;2022-09-09T03:29:45;17.40;99.90
12504;DHT22;6316;48.118;-1.690;2022-09-09T03:32:11;17.40;99.90
12504;DHT22;6316;48.118;-1.690;2022-09-09T03:34:37;17.40;99.90
12504;DHT22;6316;48.118;-1.690;2022-09-09T03:37:06;17.30;99.90
12504;DHT22;6316;48.118;-1.690;2022-09-09T03:39:32;17.40;99.90
12504;DHT22;6316;48.118;-1.690;2022-09-09T03:41:57;17.30;99.90
12504;DHT22;6316;48.118;-1.690;2022-09-09T03:44:23;17.30;99.90
12504;DHT22;6316;48.118;-1.690;2022-09-09T03:46:49;17.30;99.90
12504;DHT22;6316;48.118;-1.690;2022-09-09T03:49:14;17.30;99.90
12504;DHT22;6316;48.118;-1.690;2022-09-09T03:51:40;17.30;99.90
12504;DHT22;6316;48.118;-1.690;2022-09-09T03:54:07;17.30;99.90
12504;DHT22;6316;48.118;-1.690;2022-09-09T03:56:35;17.30;99.90
12504;DHT22;6316;48.118;-1.690;2022-09-09T03:59:01;17.20;99.90
12504;DHT22;6316;48.118;-1.690;2022-09-09T04:01:27;17.20;99.90
12504;DHT22;6316;48.118;-1.690;2022-09-09T04:03:53;17.20;99.90
12504;DHT22;6316;48.118;-1.690;2022-09-09T04:06:20;17.20;99.90
12504;DHT22;6316;48.118;-1.690;2022-09-09T04:08:46;17.20;99.90
12504;DHT22;6316;48.118;-1.690;2022-09-09T04:11:14;17.10;99.90
12504;DHT22;6316;48.118;-1.690;2022-09-09T04:13:41;17.10;99.90
12504;DHT22;6316;48.118;-1.690;2022-09-09T04:16:09;17.10;99.90
12504;DHT22;6316;48.118;-1.690;2022-09-09T04:18:35;17.00;99.90
12504;DHT22;6316;48.118;-1.690;2022-09-09T04:21:01;17.00;99.90
12504;DHT22;6316;48.118;-1.690;2022-09-09T04:23:29;17.00;99.90
12504;DHT22;6316;48.118;-1.690;2022-09-09T04:25:55;16.90;99.90
12504;DHT22;6316;48.118;-1.690;2022-09-09T04:28:23;16.90;99.90
12504;DHT22;6316;48.118;-1.690;2022-09-09T04:30:49;16.90;99.90
12504;DHT22;6316;48.118;-1.690;2022-09-09T04:33:16;16.90;99.90
12504;DHT22;6316;48.118;-1.690;2022-09-09T04:35:48;16.90;99.90
12504;DHT22;6316;48.118;-1.690;2022-09-09T04:38:14;16.90;99.90
12504;DHT22;6316;48.118;-1.690;2022-09-09T04:40:48;16.80;99.90
12504;DHT22;6316;48.118;-1.690;2022-09-09T04:43:14;16.80;99.90
12504;DHT22;6316;48.118;-1.690;2022-09-09T04:45:43;16.80;99.90
12504;DHT22;6316;48.118;-1.690;2022-09-09T04:48:09;16.80;99.90
12504;DHT22;6316;48.118;-1.690;2022-09-09T04:50:35;16.70;99.90
12504;DHT22;6316;48.118;-1.690;2022-09-09T04:53:04;16.70;99.90
12504;DHT22;6316;48.118;-1.690;2022-09-09T04:55:31;16.70;99.90
12504;DHT22;6316;48.118;-1.690;2022-09-09T04:57:57;16.70;99.90
12504;DHT22;6316;48.118;-1.690;2022-09-09T05:00:24;16.70;99.90
12504;DHT22;6316;48.118;-1.690;2022-09-09T05:02:50;16.60;99.90
12504;DHT22;6316;48.118;-1.690;2022-09-09T05:05:16;16.70;99.90
12504;DHT22;6316;48.118;-1.690;2022-09-09T05:07:42;16.60;99.90
12504;DHT22;6316;48.118;-1.690;2022-09-09T05:10:08;16.60;99.90
12504;DHT22;6316;48.118;-1.690;2022-09-09T05:12:35;16.60;99.90
12504;DHT22;6316;48.118;-1.690;2022-09-09T05:15:01;16.60;99.90
12504;DHT22;6316;48.118;-1.690;2022-09-09T05:17:27;16.60;99.90
12504;DHT22;6316;48.118;-1.690;2022-09-09T05:19:53;16.50;99.90
12504;DHT22;6316;48.118;-1.690;2022-09-09T05:22:22;16.50;99.90
12504;DHT22;6316;48.118;-1.690;2022-09-09T05:24:49;16.50;99.90
12504;DHT22;6316;48.118;-1.690;2022-09-09T05:27:19;16.50;99.90
12504;DHT22;6316;48.118;-1.690;2022-09-09T05:29:46;16.50;99.90
12504;DHT22;6316;48.118;-1.690;2022-09-09T05:32:11;16.50;99.90
12504;DHT22;6316;48.118;-1.690;2022-09-09T05:34:39;16.50;99.90
12504;DHT22;6316;48.118;-1.690;2022-09-09T05:37:04;16.40;99.90
12504;DHT22;6316;48.118;-1.690;2022-09-09T05:39:33;16.40;99.90
12504;DHT22;6316;48.118;-1.690;2022-09-09T05:41:59;16.40;99.90
12504;DHT22;6316;48.118;-1.690;2022-09-09T05:44:24;16.40;99.90
12504;DHT22;6316;48.118;-1.690;2022-09-09T05:46:53;16.40;99.90
12504;DHT22;6316;48.118;-1.690;2022-09-09T05:49:19;16.40;99.90
12504;DHT22;6316;48.118;-1.690;2022-09-09T05:51:46;16.40;99.90
12504;DHT22;6316;48.118;-1.690;2022-09-09T05:54:12;16.40;99.90
12504;DHT22;6316;48.118;-1.690;2022-09-09T05:56:40;16.40;99.90
12504;DHT22;6316;48.118;-1.690;2022-09-09T05:59:06;16.40;99.90
12504;DHT22;6316;48.118;-1.690;2022-09-09T06:01:34;16.40;99.90
12504;DHT22;6316;48.118;-1.690;2022-09-09T06:04:00;16.50;99.90
12504;DHT22;6316;48.118;-1.690;2022-09-09T06:06:30;16.50;99.90
12504;DHT22;6316;48.118;-1.690;2022-09-09T06:08:56;16.50;99.90
12504;DHT22;6316;48.118;-1.690;2022-09-09T06:11:30;16.50;99.90
12504;DHT22;6316;48.118;-1.690;2022-09-09T06:13:59;16.50;99.90
12504;DHT22;6316;48.118;-1.690;2022-09-09T06:16:27;16.60;99.90
12504;DHT22;6316;48.118;-1.690;2022-09-09T06:18:53;16.60;99.90
12504;DHT22;6316;48.118;-1.690;2022-09-09T06:21:41;16.70;99.90
12504;DHT22;6316;48.118;-1.690;2022-09-09T06:24:08;16.70;99.90
12504;DHT22;6316;48.118;-1.690;2022-09-09T06:26:36;16.70;99.90
12504;DHT22;6316;48.118;-1.690;2022-09-09T06:29:03;16.80;99.90
12504;DHT22;6316;48.118;-1.690;2022-09-09T06:31:31;16.90;99.90
12504;DHT22;6316;48.118;-1.690;2022-09-09T06:33:59;16.90;99.90
12504;DHT22;6316;48.118;-1.690;2022-09-09T06:36:35;17.00;99.90
12504;DHT22;6316;48.118;-1.690;2022-09-09T06:39:02;17.10;99.90
12504;DHT22;6316;48.118;-1.690;2022-09-09T06:41:29;17.20;99.90
12504;DHT22;6316;48.118;-1.690;2022-09-09T06:43:55;17.60;99.90
12504;DHT22;6316;48.118;-1.690;2022-09-09T06:46:23;18.20;99.90
12504;DHT22;6316;48.118;-1.690;2022-09-09T06:48:49;18.60;99.90
12504;DHT22;6316;48.118;-1.690;2022-09-09T06:51:20;18.90;99.90
12504;DHT22;6316;48.118;-1.690;2022-09-09T06:53:56;19.50;99.90
12504;DHT22;6316;48.118;-1.690;2022-09-09T06:56:27;20.40;99.90
12504;DHT22;6316;48.118;-1.690;2022-09-09T06:58:55;21.00;99.90
12504;DHT22;6316;48.118;-1.690;2022-09-09T07:01:23;21.70;99.90
12504;DHT22;6316;48.118;-1.690;2022-09-09T07:03:51;22.60;99.90
12504;DHT22;6316;48.118;-1.690;2022-09-09T07:06:22;23.50;99.90
12504;DHT22;6316;48.118;-1.690;2022-09-09T07:08:53;24.50;99.90
12504;DHT22;6316;48.118;-1.690;2022-09-09T07:11:20;25.40;99.90
12504;DHT22;6316;48.118;-1.690;2022-09-09T07:13:47;26.10;99.90
12504;DHT22;6316;48.118;-1.690;2022-09-09T07:16:15;26.60;99.90
12504;DHT22;6316;48.118;-1.690;2022-09-09T07:18:42;27.00;99.90
12504;DHT22;6316;48.118;-1.690;2022-09-09T07:21:11;27.10;99.90
12504;DHT22;6316;48.118;-1.690;2022-09-09T07:23:37;26.60;99.90
12504;DHT22;6316;48.118;-1.690;2022-09-09T07:26:10;25.90;99.90
12504;DHT22;6316;48.118;-1.690;2022-09-09T07:28:36;25.20;99.90
12504;DHT22;6316;48.118;-1.690;2022-09-09T07:31:02;24.60;99.90
12504;DHT22;6316;48.118;-1.690;2022-09-09T07:33:29;24.10;99.90
12504;DHT22;6316;48.118;-1.690;2022-09-09T07:36:31;23.50;99.90
12504;DHT22;6316;48.118;-1.690;2022-09-09T07:39:06;23.00;99.90
12504;DHT22;6316;48.118;-1.690;2022-09-09T07:41:35;22.50;99.90
12504;DHT22;6316;48.118;-1.690;2022-09-09T07:44:13;22.20;99.90
12504;DHT22;6316;48.118;-1.690;2022-09-09T07:46:39;21.80;99.90
12504;DHT22;6316;48.118;-1.690;2022-09-09T07:49:05;21.50;99.90
12504;DHT22;6316;48.118;-1.690;2022-09-09T07:51:33;21.20;99.90
12504;DHT22;6316;48.118;-1.690;2022-09-09T07:54:01;21.00;99.90
12504;DHT22;6316;48.118;-1.690;2022-09-09T07:56:28;20.80;99.90
12504;DHT22;6316;48.118;-1.690;2022-09-09T07:58:55;21.00;99.90
12504;DHT22;6316;48.118;-1.690;2022-09-09T08:01:31;21.70;99.90
12504;DHT22;6316;48.118;-1.690;2022-09-09T08:04:02;22.90;99.90
12504;DHT22;6316;48.118;-1.690;2022-09-09T08:06:34;24.00;99.90
12504;DHT22;6316;48.118;-1.690;2022-09-09T08:09:00;25.00;99.90
12504;DHT22;6316;48.118;-1.690;2022-09-09T08:11:27;25.60;99.90
12504;DHT22;6316;48.118;-1.690;2022-09-09T08:13:54;25.40;99.90
12504;DHT22;6316;48.118;-1.690;2022-09-09T08:16:24;24.90;99.90
12504;DHT22;6316;48.118;-1.690;2022-09-09T08:18:51;24.20;99.90
12504;DHT22;6316;48.118;-1.690;2022-09-09T08:21:23;23.60;99.90
12504;DHT22;6316;48.118;-1.690;2022-09-09T08:23:51;23.10;99.90
12504;DHT22;6316;48.118;-1.690;2022-09-09T08:26:18;22.60;99.90
12504;DHT22;6316;48.118;-1.690;2022-09-09T08:28:48;22.20;99.90
12504;DHT22;6316;48.118;-1.690;2022-09-09T08:31:18;21.90;99.90
12504;DHT22;6316;48.118;-1.690;2022-09-09T08:33:44;21.70;99.90
12504;DHT22;6316;48.118;-1.690;2022-09-09T08:36:19;21.60;99.90
12504;DHT22;6316;48.118;-1.690;2022-09-09T08:38:50;21.50;99.90
12504;DHT22;6316;48.118;-1.690;2022-09-09T08:50:13;21.20;99.90
12504;DHT22;6316;48.118;-1.690;2022-09-09T08:52:55;21.20;99.90
12504;DHT22;6316;48.118;-1.690;2022-09-09T08:55:42;21.20;99.90
12504;DHT22;6316;48.118;-1.690;2022-09-09T08:58:38;21.30;99.90
12504;DHT22;6316;48.118;-1.690;2022-09-09T09:09:38;21.80;99.90
12504;DHT22;6316;48.118;-1.690;2022-09-09T09:12:02;21.90;99.90
12504;DHT22;6316;48.118;-1.690;2022-09-09T09:14:34;22.00;99.90
12504;DHT22;6316;48.118;-1.690;2022-09-09T09:17:06;22.10;99.90
12504;DHT22;6316;48.118;-1.690;2022-09-09T09:19:33;22.20;99.90
12504;DHT22;6316;48.118;-1.690;2022-09-09T09:22:34;22.20;99.90
12504;DHT22;6316;48.118;-1.690;2022-09-09T09:30:56;22.00;99.90
12504;DHT22;6316;48.118;-1.690;2022-09-09T09:35:52;21.80;99.90
12504;DHT22;6316;48.118;-1.690;2022-09-09T09:38:22;21.80;99.90
12504;DHT22;6316;48.118;-1.690;2022-09-09T09:40:56;21.70;99.90
12504;DHT22;6316;48.118;-1.690;2022-09-09T09:43:35;21.60;99.90
12504;DHT22;6316;48.118;-1.690;2022-09-09T09:46:03;21.50;99.90
12504;DHT22;6316;48.118;-1.690;2022-09-09T09:48:29;21.50;99.90
12504;DHT22;6316;48.118;-1.690;2022-09-09T09:51:10;21.50;99.90
12504;DHT22;6316;48.118;-1.690;2022-09-09T09:53:37;21.50;99.90
12504;DHT22;6316;48.118;-1.690;2022-09-09T09:56:07;21.60;99.90
12504;DHT22;6316;48.118;-1.690;2022-09-09T10:03:55;21.70;99.90
12504;DHT22;6316;48.118;-1.690;2022-09-09T10:06:36;21.60;99.90
12504;DHT22;6316;48.118;-1.690;2022-09-09T10:09:17;21.50;99.90
12504;DHT22;6316;48.118;-1.690;2022-09-09T10:15:53;21.40;99.90
12504;DHT22;6316;48.118;-1.690;2022-09-09T10:18:12;21.50;99.90
12504;DHT22;6316;48.118;-1.690;2022-09-09T10:21:03;21.50;99.90
12504;DHT22;6316;48.118;-1.690;2022-09-09T10:31:42;22.10;99.90
12504;DHT22;6316;48.118;-1.690;2022-09-09T10:37:31;22.50;99.90
12504;DHT22;6316;48.118;-1.690;2022-09-09T10:42:46;22.40;99.90
12504;DHT22;6316;48.118;-1.690;2022-09-09T10:45:26;22.40;99.90
12504;DHT22;6316;48.118;-1.690;2022-09-09T10:48:16;22.30;99.90
12504;DHT22;6316;48.118;-1.690;2022-09-09T10:56:21;22.20;99.90
12504;DHT22;6316;48.118;-1.690;2022-09-09T10:59:11;22.20;99.90
12504;DHT22;6316;48.118;-1.690;2022-09-09T11:01:57;22.30;99.90
12504;DHT22;6316;48.118;-1.690;2022-09-09T11:04:33;22.40;99.90
12504;DHT22;6316;48.118;-1.690;2022-09-09T11:07:08;22.40;99.90
12504;DHT22;6316;48.118;-1.690;2022-09-09T11:09:40;22.50;99.90
12504;DHT22;6316;48.118;-1.690;2022-09-09T11:12:10;22.60;99.90
12504;DHT22;6316;48.118;-1.690;2022-09-09T11:14:57;22.60;99.90
12504;DHT22;6316;48.118;-1.690;2022-09-09T11:17:35;22.60;99.90
12504;DHT22;6316;48.118;-1.690;2022-09-09T11:20:03;22.50;99.90
12504;DHT22;6316;48.118;-1.690;2022-09-09T11:22:41;22.50;99.90
12504;DHT22;6316;48.118;-1.690;2022-09-09T11:25:35;22.50;99.90
12504;DHT22;6316;48.118;-1.690;2022-09-09T11:34:42;22.50;99.90
12504;DHT22;6316;48.118;-1.690;2022-09-09T11:44:38;22.50;99.90
12504;DHT22;6316;48.118;-1.690;2022-09-09T11:47:28;22.50;99.90
12504;DHT22;6316;48.118;-1.690;2022-09-09T11:52:41;22.50;99.90
12504;DHT22;6316;48.118;-1.690;2022-09-09T11:55:31;22.50;99.90
12504;DHT22;6316;48.118;-1.690;2022-09-09T12:03:06;22.50;99.90
12504;DHT22;6316;48.118;-1.690;2022-09-09T12:05:39;22.40;99.90
12504;DHT22;6316;48.118;-1.690;2022-09-09T12:08:07;22.40;99.90
12504;DHT22;6316;48.118;-1.690;2022-09-09T12:10:39;22.40;99.90
12504;DHT22;6316;48.118;-1.690;2022-09-09T12:13:25;22.40;99.90
12504;DHT22;6316;48.118;-1.690;2022-09-09T12:15:56;22.40;99.90
12504;DHT22;6316;48.118;-1.690;2022-09-09T12:18:32;22.40;99.90
12504;DHT22;6316;48.118;-1.690;2022-09-09T12:23:32;22.40;99.90
12504;DHT22;6316;48.118;-1.690;2022-09-09T12:26:10;22.40;99.90
12504;DHT22;6316;48.118;-1.690;2022-09-09T12:34:28;22.40;99.90
12504;DHT22;6316;48.118;-1.690;2022-09-09T12:36:55;22.40;99.90
12504;DHT22;6316;48.118;-1.690;2022-09-09T12:39:29;22.40;99.90
12504;DHT22;6316;48.118;-1.690;2022-09-09T12:41:56;22.50;99.90
12504;DHT22;6316;48.118;-1.690;2022-09-09T12:44:23;22.50;99.90
12504;DHT22;6316;48.118;-1.690;2022-09-09T12:46:51;22.60;99.90
12504;DHT22;6316;48.118;-1.690;2022-09-09T12:49:34;22.60;99.90
12504;DHT22;6316;48.118;-1.690;2022-09-09T12:52:04;22.60;99.90
12504;DHT22;6316;48.118;-1.690;2022-09-09T12:54:36;22.50;99.90
12504;DHT22;6316;48.118;-1.690;2022-09-09T12:57:02;22.60;99.90
12504;DHT22;6316;48.118;-1.690;2022-09-09T12:59:37;22.60;99.90
12504;DHT22;6316;48.118;-1.690;2022-09-09T13:02:17;22.70;99.90
12504;DHT22;6316;48.118;-1.690;2022-09-09T13:04:43;22.80;99.90
12504;DHT22;6316;48.118;-1.690;2022-09-09T13:07:11;22.90;99.90
12504;DHT22;6316;48.118;-1.690;2022-09-09T13:09:37;23.10;99.90
12504;DHT22;6316;48.118;-1.690;2022-09-09T13:12:04;23.20;99.90
12504;DHT22;6316;48.118;-1.690;2022-09-09T13:14:34;23.40;99.90
12504;DHT22;6316;48.118;-1.690;2022-09-09T13:17:04;23.50;99.90
12504;DHT22;6316;48.118;-1.690;2022-09-09T13:19:38;23.60;99.90
12504;DHT22;6316;48.118;-1.690;2022-09-09T13:25:02;23.80;99.90
12504;DHT22;6316;48.118;-1.690;2022-09-09T13:27:34;23.80;99.90
12504;DHT22;6316;48.118;-1.690;2022-09-09T13:30:00;23.80;99.90
12504;DHT22;6316;48.118;-1.690;2022-09-09T13:32:27;23.70;99.90
12504;DHT22;6316;48.118;-1.690;2022-09-09T13:34:55;23.60;99.90
12504;DHT22;6316;48.118;-1.690;2022-09-09T13:37:34;23.40;99.90
12504;DHT22;6316;48.118;-1.690;2022-09-09T13:40:00;23.20;99.90
12504;DHT22;6316;48.118;-1.690;2022-09-09T13:42:29;22.90;99.90
12504;DHT22;6316;48.118;-1.690;2022-09-09T13:44:57;22.70;99.90
12504;DHT22;6316;48.118;-1.690;2022-09-09T13:47:34;22.40;99.90
12504;DHT22;6316;48.118;-1.690;2022-09-09T13:50:25;22.20;99.90
12504;DHT22;6316;48.118;-1.690;2022-09-09T13:52:58;21.90;99.90
12504;DHT22;6316;48.118;-1.690;2022-09-09T13:55:27;21.70;99.90
12504;DHT22;6316;48.118;-1.690;2022-09-09T13:58:01;21.40;99.90
12504;DHT22;6316;48.118;-1.690;2022-09-09T14:00:30;21.20;99.90
12504;DHT22;6316;48.118;-1.690;2022-09-09T14:02:56;21.10;99.90
12504;DHT22;6316;48.118;-1.690;2022-09-09T14:05:22;21.00;99.90
12504;DHT22;6316;48.118;-1.690;2022-09-09T14:07:49;20.90;99.90
12504;DHT22;6316;48.118;-1.690;2022-09-09T14:10:15;20.80;99.90
12504;DHT22;6316;48.118;-1.690;2022-09-09T14:12:41;20.80;99.90
12504;DHT22;6316;48.118;-1.690;2022-09-09T14:15:09;20.90;99.90
12504;DHT22;6316;48.118;-1.690;2022-09-09T14:17:35;21.00;99.90
12504;DHT22;6316;48.118;-1.690;2022-09-09T14:20:05;21.00;99.90
12504;DHT22;6316;48.118;-1.690;2022-09-09T14:22:33;21.20;99.90
12504;DHT22;6316;48.118;-1.690;2022-09-09T14:24:59;21.30;99.90
12504;DHT22;6316;48.118;-1.690;2022-09-09T14:27:24;21.50;99.90
12504;DHT22;6316;48.118;-1.690;2022-09-09T14:29:52;21.60;99.90
12504;DHT22;6316;48.118;-1.690;2022-09-09T14:32:18;21.70;99.90
12504;DHT22;6316;48.118;-1.690;2022-09-09T14:34:44;21.70;99.90
12504;DHT22;6316;48.118;-1.690;2022-09-09T14:37:10;21.70;99.90
12504;DHT22;6316;48.118;-1.690;2022-09-09T14:39:35;21.70;99.90
12504;DHT22;6316;48.118;-1.690;2022-09-09T14:42:01;21.70;99.90
12504;DHT22;6316;48.118;-1.690;2022-09-09T14:44:28;21.70;99.90
12504;DHT22;6316;48.118;-1.690;2022-09-09T14:46:53;21.60;99.90
12504;DHT22;6316;48.118;-1.690;2022-09-09T14:49:19;21.50;99.90
12504;DHT22;6316;48.118;-1.690;2022-09-09T14:51:45;21.40;99.90
12504;DHT22;6316;48.118;-1.690;2022-09-09T14:54:11;21.30;99.90
12504;DHT22;6316;48.118;-1.690;2022-09-09T14:56:37;21.30;99.90
12504;DHT22;6316;48.118;-1.690;2022-09-09T14:59:04;21.30;99.90
12504;DHT22;6316;48.118;-1.690;2022-09-09T15:01:30;21.40;99.90
12504;DHT22;6316;48.118;-1.690;2022-09-09T15:04:02;21.40;99.90
12504;DHT22;6316;48.118;-1.690;2022-09-09T15:06:30;21.50;99.90
12504;DHT22;6316;48.118;-1.690;2022-09-09T15:08:57;21.50;99.90
12504;DHT22;6316;48.118;-1.690;2022-09-09T15:11:24;21.60;99.90
12504;DHT22;6316;48.118;-1.690;2022-09-09T15:13:51;21.60;99.90
12504;DHT22;6316;48.118;-1.690;2022-09-09T15:16:19;21.60;99.90
12504;DHT22;6316;48.118;-1.690;2022-09-09T15:18:46;21.70;99.90
12504;DHT22;6316;48.118;-1.690;2022-09-09T15:21:14;21.70;99.90
12504;DHT22;6316;48.118;-1.690;2022-09-09T15:23:41;21.70;99.90
12504;DHT22;6316;48.118;-1.690;2022-09-09T15:26:07;21.60;99.90
12504;DHT22;6316;48.118;-1.690;2022-09-09T15:28:35;21.50;99.90
12504;DHT22;6316;48.118;-1.690;2022-09-09T15:31:06;21.50;99.90
12504;DHT22;6316;48.118;-1.690;2022-09-09T15:33:32;21.40;99.90
12504;DHT22;6316;48.118;-1.690;2022-09-09T15:35:59;21.40;99.90
12504;DHT22;6316;48.118;-1.690;2022-09-09T15:38:25;21.40;99.90
12504;DHT22;6316;48.118;-1.690;2022-09-09T15:40:56;21.40;99.90
12504;DHT22;6316;48.118;-1.690;2022-09-09T15:43:22;21.50;99.90
12504;DHT22;6316;48.118;-1.690;2022-09-09T15:45:53;21.50;99.90
12504;DHT22;6316;48.118;-1.690;2022-09-09T15:48:30;21.60;99.90
12504;DHT22;6316;48.118;-1.690;2022-09-09T15:51:04;21.60;99.90
12504;DHT22;6316;48.118;-1.690;2022-09-09T15:53:30;21.70;99.90
12504;DHT22;6316;48.118;-1.690;2022-09-09T15:55:58;21.70;99.90
12504;DHT22;6316;48.118;-1.690;2022-09-09T15:58:23;21.70;99.90
12504;DHT22;6316;48.118;-1.690;2022-09-09T16:00:49;21.70;99.90
12504;DHT22;6316;48.118;-1.690;2022-09-09T16:03:14;21.70;99.90
12504;DHT22;6316;48.118;-1.690;2022-09-09T16:05:40;21.70;99.90
12504;DHT22;6316;48.118;-1.690;2022-09-09T16:08:06;21.70;99.90
12504;DHT22;6316;48.118;-1.690;2022-09-09T16:10:32;21.80;99.90
12504;DHT22;6316;48.118;-1.690;2022-09-09T16:12:57;21.80;99.90
12504;DHT22;6316;48.118;-1.690;2022-09-09T16:15:24;21.90;99.90
12504;DHT22;6316;48.118;-1.690;2022-09-09T16:17:53;21.90;99.90
12504;DHT22;6316;48.118;-1.690;2022-09-09T16:20:19;21.80;99.90
12504;DHT22;6316;48.118;-1.690;2022-09-09T16:22:45;21.70;99.90
12504;DHT22;6316;48.118;-1.690;2022-09-09T16:25:11;21.70;99.90
12504;DHT22;6316;48.118;-1.690;2022-09-09T16:27:37;21.60;99.90
12504;DHT22;6316;48.118;-1.690;2022-09-09T16:30:03;21.60;99.90
12504;DHT22;6316;48.118;-1.690;2022-09-09T16:32:28;21.50;99.90
12504;DHT22;6316;48.118;-1.690;2022-09-09T16:34:55;21.50;99.90
12504;DHT22;6316;48.118;-1.690;2022-09-09T16:37:20;21.40;99.90
12504;DHT22;6316;48.118;-1.690;2022-09-09T16:39:46;21.40;99.90
12504;DHT22;6316;48.118;-1.690;2022-09-09T16:42:11;21.40;99.90
12504;DHT22;6316;48.118;-1.690;2022-09-09T16:44:37;21.30;99.90
12504;DHT22;6316;48.118;-1.690;2022-09-09T16:47:03;21.30;99.90
12504;DHT22;6316;48.118;-1.690;2022-09-09T16:49:28;21.30;99.90
12504;DHT22;6316;48.118;-1.690;2022-09-09T16:51:57;21.30;99.90
12504;DHT22;6316;48.118;-1.690;2022-09-09T16:54:23;21.30;99.90
12504;DHT22;6316;48.118;-1.690;2022-09-09T16:56:50;21.40;99.90
12504;DHT22;6316;48.118;-1.690;2022-09-09T16:59:20;21.40;99.90
12504;DHT22;6316;48.118;-1.690;2022-09-09T17:01:48;21.40;99.90
12504;DHT22;6316;48.118;-1.690;2022-09-09T17:04:16;21.40;99.90
12504;DHT22;6316;48.118;-1.690;2022-09-09T17:06:47;21.40;99.90
12504;DHT22;6316;48.118;-1.690;2022-09-09T17:09:14;21.40;99.90
12504;DHT22;6316;48.118;-1.690;2022-09-09T17:11:40;21.40;99.90
12504;DHT22;6316;48.118;-1.690;2022-09-09T17:14:07;21.30;99.90
12504;DHT22;6316;48.118;-1.690;2022-09-09T17:16:35;21.40;99.90
12504;DHT22;6316;48.118;-1.690;2022-09-09T17:19:01;21.30;99.90
12504;DHT22;6316;48.118;-1.690;2022-09-09T17:21:29;21.30;99.90
12504;DHT22;6316;48.118;-1.690;2022-09-09T17:23:56;21.30;99.90
12504;DHT22;6316;48.118;-1.690;2022-09-09T17:26:24;21.30;99.90
12504;DHT22;6316;48.118;-1.690;2022-09-09T17:28:52;21.30;99.90
12504;DHT22;6316;48.118;-1.690;2022-09-09T17:31:17;21.20;99.90
12504;DHT22;6316;48.118;-1.690;2022-09-09T17:33:46;21.20;99.90
12504;DHT22;6316;48.118;-1.690;2022-09-09T17:36:22;21.10;99.90
12504;DHT22;6316;48.118;-1.690;2022-09-09T17:38:49;21.00;99.90
12504;DHT22;6316;48.118;-1.690;2022-09-09T17:41:18;21.00;99.90
12504;DHT22;6316;48.118;-1.690;2022-09-09T17:43:45;20.90;99.90
12504;DHT22;6316;48.118;-1.690;2022-09-09T17:48:41;20.80;99.90
12504;DHT22;6316;48.118;-1.690;2022-09-09T17:51:09;20.70;99.90
12504;DHT22;6316;48.118;-1.690;2022-09-09T17:53:41;20.70;99.90
12504;DHT22;6316;48.118;-1.690;2022-09-09T17:56:09;20.60;99.90
12504;DHT22;6316;48.118;-1.690;2022-09-09T17:58:36;20.50;99.90
12504;DHT22;6316;48.118;-1.690;2022-09-09T18:01:06;20.50;99.90
12504;DHT22;6316;48.118;-1.690;2022-09-09T18:03:41;20.50;99.90
12504;DHT22;6316;48.118;-1.690;2022-09-09T18:06:16;20.40;99.90